SFFFELTS FLD
METARs for airports near SFF, sorted by distance:
N 0 nm 1956' KSFF 161225Z 00000KT 1 3/4SM BR CLR 04/04 A3015
SW 9 nm 2385' KGEG 161153Z 00000KT 8SM CLR 05/04 A3014
W 14 nm 2462' KSKA 161158Z 08005KT 10SM FEW095 03/03 A3012
N 17 nm 2210' KDEW 161153Z 04004KT 10SM FEW090 BKN100 06/04 A3014
E 21 nm 2320' KCOE 161225Z 09005KT 1/4SM FG VV001 03/03 A3016
NE 48 nm 2131' KSZT 161235Z 00000KT 04/04 A3016
S 57 nm 2566' KPUW 161153Z 11007KT 10SM CLR 07/01 A3016
S 79 nm 1442' KLWS 161156Z 06008KT 10SM CLR 09/01 A3015
E 82 nm 2466' KTHM 160955Z 00000KT 1 1/2SM BR 02/00 A3022
W 85 nm 1188' KMWH 161152Z 02003KT 10SM CLR 03/02 A3010
W 91 nm 1276' KEPH 161153Z 04003KT 10SM CLR 04/03 A3009
NW 99 nm 1304' KOMK 161153Z 00000KT 10SM CLR 07/04 A3007
TAFs for airports near SFF, sorted by distance:
N 0 nm 1956' KSFF TAF KSFF 161126Z 1612/1712 00000KT P6SM SCT120
  TEMPO 1612/1615 2SM BR FEW003
  FM161800 18006KT P6SM SCT250
  FM170200 VRB03KT P6SM FEW150
SW 9 nm 2385' KGEG TAF KGEG 161126Z 1612/1712 07003KT P6SM SCT120
  TEMPO 1612/1615 3SM MIFG SCT001
  FM161800 18007G13KT P6SM SCT250
  FM170200 07004KT P6SM FEW150
W 14 nm 2462' KSKA TAF KSKA 161100Z 1611/1717 06006KT 9999 SCT150 QNH3014INS
  BECMG 1617/1618 18009KT 9999 FEW200 QNH2980INS WND 14006KT AFT 1703 TX18/1623Z TN03/1613Z
E 21 nm 2320' KCOE TAF
  AMD KCOE 161233Z 1613/1712 07005KT 3SM BR FEW001 SCT120
  TEMPO 1613/1615 1/2SM FG VV001
  FM161500 06008KT P6SM FEW150 FEW250
  FM170100 03006KT P6SM SKC
S 57 nm 2566' KPUW TAF KPUW 161126Z 1612/1712 10006KT P6SM FEW100
  FM161800 12011KT P6SM FEW250
S 79 nm 1442' KLWS TAF KLWS 161126Z 1612/1712 10006KT P6SM FEW100
  FM161600 10006KT P6SM FEW250
W 85 nm 1188' KMWH TAF KMWH 161126Z 1612/1712 01004KT P6SM SCT100 SCT250
  FM161800 17006KT P6SM FEW150 SCT250
  FM170400 02003KT P6SM FEW150 SCT250
  FM171000 01005KT P6SM SCT120 BKN200

Shortcut to this page: http://wxbay.com.

Data may contain errors.